createdAt,value
2019-01-02T00:00:43.876Z,1009.37
2019-01-02T00:01:43.889Z,1009.24
2019-01-02T00:02:43.904Z,1009.38
2019-01-02T00:03:43.917Z,1009.22
2019-01-02T00:04:43.931Z,1009.23
2019-01-02T00:05:43.946Z,1009.22
2019-01-02T00:06:43.960Z,1009.23
2019-01-02T00:07:43.973Z,1009.24
2019-01-02T00:08:43.987Z,1009.21
2019-01-02T00:09:44.003Z,1009.21
2019-01-02T00:10:44.016Z,1009.23
2019-01-02T00:11:44.029Z,1009.26
2019-01-02T00:12:44.043Z,1009.25
2019-01-02T00:13:44.057Z,1009.33
2019-01-02T00:14:44.070Z,1009.24
2019-01-02T00:15:44.084Z,1009.36
2019-01-02T00:16:44.099Z,1009.13
2019-01-02T00:17:44.113Z,1009.35
2019-01-02T00:18:44.126Z,1009.3
2019-01-02T00:19:44.140Z,1009.38
2019-01-02T00:20:44.154Z,1009.44
2019-01-02T00:21:44.169Z,1009.5
2019-01-02T00:22:44.181Z,1009.47
2019-01-02T00:23:44.196Z,1009.47
2019-01-02T00:24:44.210Z,1009.34
2019-01-02T00:25:44.223Z,1009.49
2019-01-02T00:27:44.251Z,1009.51
2019-01-02T00:28:44.265Z,1009.54
2019-01-02T00:29:44.279Z,1009.45
2019-01-02T00:30:44.293Z,1009.46
2019-01-02T00:31:44.307Z,1009.55
2019-01-02T00:32:44.321Z,1009.53
2019-01-02T00:33:44.334Z,1009.61
2019-01-02T00:34:44.348Z,1009.54
2019-01-02T00:35:44.362Z,1009.56
2019-01-02T00:36:44.375Z,1009.46
2019-01-02T00:37:44.389Z,1009.66
2019-01-02T00:38:44.453Z,1009.68
2019-01-02T00:39:44.427Z,1009.63
2019-01-02T00:40:44.431Z,1009.67
2019-01-02T00:41:44.445Z,1009.63
2019-01-02T00:43:44.473Z,1009.65
2019-01-02T00:44:44.487Z,1009.59
2019-01-02T00:45:44.502Z,1009.56
2019-01-02T00:46:44.514Z,1009.67
2019-01-02T00:47:44.527Z,1009.56
2019-01-02T00:48:44.541Z,1009.66
2019-01-02T00:49:44.555Z,1009.52
2019-01-02T00:50:44.568Z,1009.63
2019-01-02T00:51:44.584Z,1009.68
2019-01-02T00:52:44.596Z,1009.63
2019-01-02T00:53:44.610Z,1009.56
2019-01-02T00:54:44.624Z,1009.65
2019-01-02T00:55:44.637Z,1009.64
2019-01-02T00:56:44.651Z,1009.68
2019-01-02T00:57:44.666Z,1009.68
2019-01-02T00:59:44.692Z,1009.72
2019-01-02T01:00:44.706Z,1009.71
2019-01-02T01:01:44.723Z,1009.71
2019-01-02T01:02:44.735Z,1009.83
2019-01-02T01:03:44.746Z,1009.78
2019-01-02T01:04:44.760Z,1009.71
2019-01-02T01:05:44.774Z,1009.81
2019-01-02T01:06:44.787Z,1009.81
2019-01-02T01:07:44.803Z,1009.81
2019-01-02T01:08:44.815Z,1009.78
2019-01-02T01:09:44.828Z,1009.74
2019-01-02T01:10:44.842Z,1009.79
2019-01-02T01:11:44.856Z,1009.81
2019-01-02T01:12:44.870Z,1009.77
2019-01-02T01:13:44.883Z,1009.76
2019-01-02T01:15:44.911Z,1009.79
2019-01-02T01:16:44.925Z,1009.77
2019-01-02T01:17:44.938Z,1009.95
2019-01-02T01:18:44.952Z,1009.81
2019-01-02T01:19:44.966Z,1009.79
2019-01-02T01:20:44.978Z,1009.84
2019-01-02T01:21:44.993Z,1009.87
2019-01-02T01:22:45.007Z,1009.86
2019-01-02T01:23:45.020Z,1009.83
2019-01-02T01:24:45.033Z,1009.97
2019-01-02T01:25:45.055Z,1009.91
2019-01-02T01:26:45.061Z,1009.91
2019-01-02T01:27:45.075Z,1009.9
2019-01-02T01:28:45.089Z,1009.94
2019-01-02T01:30:45.117Z,1009.96
2019-01-02T01:31:45.130Z,1009.95
2019-01-02T01:32:45.144Z,1009.96
2019-01-02T01:33:45.157Z,1009.93
2019-01-02T01:34:45.171Z,1009.92
2019-01-02T01:35:45.184Z,1009.95
2019-01-02T01:36:45.198Z,1009.93
2019-01-02T01:37:45.213Z,1009.99
2019-01-02T01:38:45.226Z,1010.02
2019-01-02T01:39:45.238Z,1010.09
2019-01-02T01:40:45.252Z,1010.1
2019-01-02T01:41:45.267Z,1010.04
2019-01-02T01:42:45.379Z,1010.02
2019-01-02T01:43:45.293Z,1009.97
2019-01-02T01:44:45.308Z,1010.18
2019-01-02T01:45:45.321Z,1009.99
2019-01-02T01:46:45.335Z,1010.05
2019-01-02T01:47:45.348Z,1010.08
2019-01-02T01:48:45.363Z,1010.1
2019-01-02T01:49:45.375Z,1010.14
2019-01-02T01:50:45.389Z,1010.13
2019-01-02T01:51:45.402Z,1010.09
2019-01-02T01:52:45.417Z,1010.16
2019-01-02T01:53:45.438Z,1010.16
2019-01-02T01:54:45.443Z,1010.03
2019-01-02T01:55:45.457Z,1010.08
2019-01-02T01:56:45.471Z,1010.09
2019-01-02T01:57:45.484Z,1010.15
2019-01-02T01:58:45.498Z,1010.11
2019-01-02T01:59:45.511Z,1009.99
2019-01-02T02:00:45.525Z,1010.08
2019-01-02T02:02:45.552Z,1010.09
2019-01-02T02:03:45.567Z,1010.11
2019-01-02T02:04:45.579Z,1010.08
2019-01-02T02:05:45.596Z,1010.04
2019-01-02T02:06:45.608Z,1010.26
2019-01-02T02:07:45.620Z,1010.06
2019-01-02T02:08:45.633Z,1010.05
2019-01-02T02:09:45.647Z,1010.14
2019-01-02T02:10:45.663Z,1010.12
2019-01-02T02:11:45.674Z,1010.1
2019-01-02T02:12:45.687Z,1010.08
2019-01-02T02:13:45.702Z,1010.12
2019-01-02T02:14:45.716Z,1010.15
2019-01-02T02:15:45.729Z,1010.06
2019-01-02T02:16:45.742Z,1010.12
2019-01-02T02:18:45.770Z,1010.07
2019-01-02T02:19:45.783Z,1010.06
2019-01-02T02:20:45.797Z,1010.07
2019-01-02T02:21:45.810Z,1010.13
2019-01-02T02:22:45.823Z,1010.13
2019-01-02T02:23:45.836Z,1010.18
2019-01-02T02:24:45.850Z,1010.32
2019-01-02T02:25:45.864Z,1010.18
2019-01-02T02:26:45.877Z,1010.17
2019-01-02T02:27:45.891Z,1010.28
2019-01-02T02:28:45.905Z,1010.2
2019-01-02T02:29:45.919Z,1010.29
2019-01-02T02:30:45.932Z,1010.24
2019-01-02T02:31:45.945Z,1010.22
2019-01-02T02:32:45.959Z,1010.25
2019-01-02T02:34:45.985Z,1010.25
2019-01-02T02:35:45.998Z,1010.2
2019-01-02T02:36:46.013Z,1010.26
2019-01-02T02:37:46.025Z,1010.27
2019-01-02T02:38:46.039Z,1010.38
2019-01-02T02:39:46.053Z,1010.28
2019-01-02T02:40:46.067Z,1010.34
2019-01-02T02:41:46.079Z,1010.22
2019-01-02T02:42:46.093Z,1010.34
2019-01-02T02:43:46.106Z,1010.25
2019-01-02T02:44:46.119Z,1010.36
2019-01-02T02:45:46.135Z,1010.34
2019-01-02T02:46:46.147Z,1010.4
2019-01-02T02:47:46.161Z,1010.38
2019-01-02T02:48:46.173Z,1010.34
2019-01-02T02:50:46.200Z,1010.3
2019-01-02T02:51:46.215Z,1010.35
2019-01-02T02:52:46.227Z,1010.38
2019-01-02T02:53:46.241Z,1010.35
2019-01-02T02:54:46.256Z,1010.42
2019-01-02T02:55:46.267Z,1010.45
2019-01-02T02:56:46.283Z,1010.4
2019-01-02T02:57:46.295Z,1010.39
2019-01-02T02:58:46.309Z,1010.42
2019-01-02T02:59:46.321Z,1010.36
2019-01-02T03:00:46.335Z,1010.43
2019-01-02T03:01:46.349Z,1010.41
2019-01-02T03:02:46.363Z,1010.39
2019-01-02T03:03:46.377Z,1010.39
2019-01-02T03:05:46.408Z,1010.33
2019-01-02T03:06:47.111Z,1010.53
2019-01-02T03:07:46.431Z,1010.47
2019-01-02T03:08:46.445Z,1010.36
2019-01-02T03:09:46.459Z,1010.4
2019-01-02T03:10:46.471Z,1010.39
2019-01-02T03:11:46.486Z,1010.43
2019-01-02T03:12:46.499Z,1010.42
2019-01-02T03:13:46.512Z,1010.39
2019-01-02T03:14:46.526Z,1010.46
2019-01-02T03:15:46.539Z,1010.53
2019-01-02T03:16:46.553Z,1010.49
2019-01-02T03:17:46.566Z,1010.5
2019-01-02T03:18:46.581Z,1010.59
2019-01-02T03:19:46.594Z,1010.63
2019-01-02T03:20:46.608Z,1010.62
2019-01-02T03:21:46.621Z,1010.63
2019-01-02T03:22:46.635Z,1010.55
2019-01-02T03:23:46.649Z,1010.55
2019-01-02T03:24:46.662Z,1010.66
2019-01-02T03:25:46.678Z,1010.52
2019-01-02T03:26:46.690Z,1010.53
2019-01-02T03:27:46.703Z,1010.57
2019-01-02T03:28:46.718Z,1010.54
2019-01-02T03:29:46.731Z,1010.61
2019-01-02T03:30:46.745Z,1010.68
2019-01-02T03:31:46.759Z,1010.73
2019-01-02T03:32:46.771Z,1010.71
2019-01-02T03:33:46.785Z,1010.6
2019-01-02T03:34:46.799Z,1010.53
2019-01-02T03:35:46.812Z,1010.63
2019-01-02T03:37:46.841Z,1010.64
2019-01-02T03:38:46.854Z,1010.74
2019-01-02T03:39:46.867Z,1010.71
2019-01-02T03:40:46.881Z,1010.66
2019-01-02T03:41:46.894Z,1010.71
2019-01-02T03:42:46.911Z,1010.75
2019-01-02T03:43:46.921Z,1010.78
2019-01-02T03:44:46.936Z,1010.71
2019-01-02T03:45:46.949Z,1010.73
2019-01-02T03:46:46.962Z,1010.67
2019-01-02T03:47:46.978Z,1010.72
2019-01-02T03:48:46.990Z,1010.62
2019-01-02T03:49:47.005Z,1010.76
2019-01-02T03:50:47.018Z,1010.68
2019-01-02T03:51:47.031Z,1010.68
2019-01-02T03:53:47.061Z,1010.64
2019-01-02T03:54:47.072Z,1010.66
2019-01-02T03:55:47.086Z,1010.61
2019-01-02T03:56:47.100Z,1010.6
2019-01-02T03:57:47.113Z,1010.74
2019-01-02T03:58:47.128Z,1010.73
2019-01-02T03:59:47.146Z,1010.58
2019-01-02T04:00:47.155Z,1010.68
2019-01-02T04:01:47.168Z,1010.67
2019-01-02T04:02:47.183Z,1010.73
2019-01-02T04:03:47.196Z,1010.66
2019-01-02T04:04:47.210Z,1010.81
2019-01-02T04:05:47.223Z,1010.75
2019-01-02T04:06:47.238Z,1010.87
2019-01-02T04:07:47.251Z,1010.82
2019-01-02T04:09:47.279Z,1010.86
2019-01-02T04:10:47.294Z,1010.98
2019-01-02T04:11:47.307Z,1010.88
2019-01-02T04:12:47.318Z,1010.94
2019-01-02T04:13:47.333Z,1011.02
2019-01-02T04:14:47.347Z,1010.99
2019-01-02T04:15:47.363Z,1011
2019-01-02T04:16:47.374Z,1011.04
2019-01-02T04:17:47.388Z,1010.94
2019-01-02T04:18:47.402Z,1011.1
2019-01-02T04:19:47.415Z,1010.99
2019-01-02T04:20:47.429Z,1011.15
2019-01-02T04:21:47.443Z,1011.05
2019-01-02T04:22:47.456Z,1011.05
2019-01-02T04:23:47.470Z,1011
2019-01-02T04:25:47.498Z,1011.13
2019-01-02T04:26:47.512Z,1011.17
2019-01-02T04:27:47.525Z,1011.23
2019-01-02T04:28:47.539Z,1011.23
2019-01-02T04:29:47.553Z,1011.32
2019-01-02T04:30:47.566Z,1011.26
2019-01-02T04:31:47.581Z,1011.27
2019-01-02T04:32:47.595Z,1011.27
2019-01-02T04:33:47.608Z,1011.33
2019-01-02T04:34:47.621Z,1011.35
2019-01-02T04:35:47.635Z,1011.4
2019-01-02T04:36:47.649Z,1011.52
2019-01-02T04:37:47.665Z,1011.63
2019-01-02T04:38:47.678Z,1011.73
2019-01-02T04:40:47.707Z,1011.68
2019-01-02T04:41:47.718Z,1011.7
2019-01-02T04:42:47.732Z,1011.78
2019-01-02T04:43:47.747Z,1011.71
2019-01-02T04:44:47.762Z,1011.73
2019-01-02T04:45:47.773Z,1011.69
2019-01-02T04:46:47.788Z,1011.73
2019-01-02T04:47:47.802Z,1011.79
2019-01-02T04:48:47.815Z,1011.63
2019-01-02T04:49:47.829Z,1011.89
2019-01-02T04:50:47.843Z,1011.77
2019-01-02T04:51:47.857Z,1011.7
2019-01-02T04:52:47.870Z,1011.65
2019-01-02T04:53:47.884Z,1011.69
2019-01-02T04:54:47.899Z,1011.7
2019-01-02T04:55:47.912Z,1011.61
2019-01-02T04:56:47.925Z,1011.69
2019-01-02T04:57:47.939Z,1011.63
2019-01-02T04:58:47.953Z,1011.63
2019-01-02T04:59:47.966Z,1011.62
2019-01-02T05:00:47.980Z,1011.7
2019-01-02T05:01:49.372Z,1011.64
2019-01-02T05:02:48.008Z,1011.66
2019-01-02T05:03:48.021Z,1011.76
2019-01-02T05:04:48.035Z,1011.79
2019-01-02T05:05:48.049Z,1011.61
2019-01-02T05:06:48.062Z,1011.79
2019-01-02T05:07:48.076Z,1011.82
2019-01-02T05:08:48.090Z,1011.69
2019-01-02T05:09:48.104Z,1011.77
2019-01-02T05:10:48.117Z,1011.97
2019-01-02T05:12:48.145Z,1011.98
2019-01-02T05:13:48.159Z,1012
2019-01-02T05:14:48.171Z,1011.98
2019-01-02T05:15:48.185Z,1011.95
2019-01-02T05:16:48.199Z,1011.97
2019-01-02T05:17:48.213Z,1011.95
2019-01-02T05:18:48.226Z,1012.02
2019-01-02T05:19:48.240Z,1011.92
2019-01-02T05:20:48.253Z,1011.98
2019-01-02T05:21:48.266Z,1012.04
2019-01-02T05:22:48.380Z,1012.14
2019-01-02T05:23:48.294Z,1012.09
2019-01-02T05:24:48.309Z,1012.12
2019-01-02T05:25:48.322Z,1012.1
2019-01-02T05:26:48.334Z,1012.23
2019-01-02T05:28:48.362Z,1012.29
2019-01-02T05:29:48.375Z,1012.31
2019-01-02T05:30:48.390Z,1012.36
2019-01-02T05:31:48.403Z,1012.33
2019-01-02T05:32:48.416Z,1012.37
2019-01-02T05:33:48.429Z,1012.44
2019-01-02T05:34:48.443Z,1012.44
2019-01-02T05:35:48.457Z,1012.47
2019-01-02T05:36:48.470Z,1012.54
2019-01-02T05:37:48.484Z,1012.52
2019-01-02T05:38:48.498Z,1012.62
2019-01-02T05:39:48.513Z,1012.6
2019-01-02T05:40:48.528Z,1012.6
2019-01-02T05:41:48.538Z,1012.61
2019-01-02T05:42:48.552Z,1012.63
2019-01-02T05:44:48.579Z,1012.59
2019-01-02T05:45:48.593Z,1012.62
2019-01-02T05:46:48.607Z,1012.54
2019-01-02T05:47:48.620Z,1012.66
2019-01-02T05:48:48.634Z,1012.58
2019-01-02T05:49:48.648Z,1012.59
2019-01-02T05:50:48.662Z,1012.61
2019-01-02T05:51:48.675Z,1012.68
2019-01-02T05:52:48.688Z,1012.64
2019-01-02T05:53:48.753Z,1012.66
2019-01-02T05:54:48.716Z,1012.64
2019-01-02T05:55:48.829Z,1012.7
2019-01-02T05:56:48.743Z,1012.68
2019-01-02T05:57:48.757Z,1012.72
2019-01-02T05:58:48.818Z,1012.74
2019-01-02T06:00:48.798Z,1012.67
2019-01-02T06:01:48.812Z,1012.71
2019-01-02T06:02:48.825Z,1012.73
2019-01-02T06:03:48.839Z,1012.72
2019-01-02T06:04:48.854Z,1012.8
2019-01-02T06:05:48.872Z,1012.85
2019-01-02T06:06:48.880Z,1012.93
2019-01-02T06:07:48.894Z,1012.88
2019-01-02T06:08:48.910Z,1012.97
2019-01-02T06:09:48.921Z,1012.84
2019-01-02T06:10:48.935Z,1013.01
2019-01-02T06:11:48.949Z,1012.99
2019-01-02T06:12:48.963Z,1012.98
2019-01-02T06:13:48.977Z,1012.93
2019-01-02T06:15:49.005Z,1013.12
2019-01-02T06:16:49.019Z,1013.09
2019-01-02T06:17:49.032Z,1013.13
2019-01-02T06:18:49.045Z,1013.07
2019-01-02T06:19:49.060Z,1013.07
2019-01-02T06:20:49.073Z,1013.17
2019-01-02T06:21:49.087Z,1013.02
2019-01-02T06:22:49.102Z,1013.04
2019-01-02T06:23:49.114Z,1013.1
2019-01-02T06:24:49.129Z,1013.14
2019-01-02T06:25:49.142Z,1013.16
2019-01-02T06:26:49.157Z,1013.18
2019-01-02T06:27:49.169Z,1013.09
2019-01-02T06:28:49.186Z,1013.29
2019-01-02T06:29:49.198Z,1013.11
2019-01-02T06:30:49.212Z,1013.19
2019-01-02T06:31:49.225Z,1013.2
2019-01-02T06:32:49.238Z,1013.3
2019-01-02T06:33:49.254Z,1013.2
2019-01-02T06:34:49.265Z,1013.32
2019-01-02T06:35:49.280Z,1013.34
2019-01-02T06:36:49.295Z,1013.4
2019-01-02T06:37:49.308Z,1013.36
2019-01-02T06:38:49.322Z,1013.39
2019-01-02T06:39:49.337Z,1013.4
2019-01-02T06:40:49.349Z,1013.38
2019-01-02T06:41:49.363Z,1013.3
2019-01-02T06:42:49.377Z,1013.43
2019-01-02T06:43:49.390Z,1013.47
2019-01-02T06:44:49.404Z,1013.53
2019-01-02T06:45:49.424Z,1013.6
2019-01-02T06:47:49.445Z,1013.66
2019-01-02T06:48:49.459Z,1013.75
2019-01-02T06:49:49.475Z,1013.71
2019-01-02T06:50:49.486Z,1013.78
2019-01-02T06:51:49.500Z,1013.81
2019-01-02T06:52:49.514Z,1013.85
2019-01-02T06:53:49.527Z,1013.87
2019-01-02T06:54:49.541Z,1013.76
2019-01-02T06:55:49.554Z,1013.89
2019-01-02T06:56:49.569Z,1013.93
2019-01-02T06:57:49.587Z,1013.86
2019-01-02T06:58:49.596Z,1013.92
2019-01-02T06:59:49.612Z,1013.88
2019-01-02T07:00:49.623Z,1014
2019-01-02T07:01:49.637Z,1013.98
2019-01-02T07:03:49.715Z,1014.01
2019-01-02T07:04:49.678Z,1014.08
2019-01-02T07:05:49.693Z,1014.03
2019-01-02T07:06:49.707Z,1014.18
2019-01-02T07:07:49.719Z,1014.09
2019-01-02T07:08:49.734Z,1014.17
2019-01-02T07:09:49.747Z,1014.14
2019-01-02T07:10:49.761Z,1014.26
2019-01-02T07:11:49.774Z,1014.32
2019-01-02T07:12:49.788Z,1014.25
2019-01-02T07:13:49.802Z,1014.35
2019-01-02T07:14:49.816Z,1014.36
2019-01-02T07:15:49.828Z,1014.41
2019-01-02T07:16:49.842Z,1014.4
2019-01-02T07:17:49.856Z,1014.48
2019-01-02T07:19:49.883Z,1014.61
2019-01-02T07:20:49.897Z,1014.48
2019-01-02T07:21:49.911Z,1014.52
2019-01-02T07:22:49.924Z,1014.63
2019-01-02T07:23:49.937Z,1014.54
2019-01-02T07:24:49.952Z,1014.67
2019-01-02T07:25:49.966Z,1014.6
2019-01-02T07:26:49.978Z,1014.82
2019-01-02T07:27:49.992Z,1014.71
2019-01-02T07:28:50.007Z,1014.75
2019-01-02T07:29:50.019Z,1014.74
2019-01-02T07:30:50.033Z,1014.77
2019-01-02T07:31:50.053Z,1014.83
2019-01-02T07:32:50.060Z,1014.84
2019-01-02T07:33:50.074Z,1014.83
2019-01-02T07:35:50.101Z,1014.88
2019-01-02T07:36:50.116Z,1014.89
2019-01-02T07:37:50.129Z,1014.96
2019-01-02T07:38:50.142Z,1015.09
2019-01-02T07:39:50.156Z,1015.12
2019-01-02T07:40:50.171Z,1015.14
2019-01-02T07:41:50.183Z,1015.11
2019-01-02T07:42:50.196Z,1015.13
2019-01-02T07:43:50.210Z,1015.15
2019-01-02T07:44:50.226Z,1015.13
2019-01-02T07:45:50.239Z,1015.15
2019-01-02T07:46:50.250Z,1015.15
2019-01-02T07:47:50.265Z,1015.15
2019-01-02T07:48:50.278Z,1015.13
2019-01-02T07:50:50.306Z,1015.11
2019-01-02T07:51:50.319Z,1015.12
2019-01-02T07:52:50.336Z,1015.18
2019-01-02T07:53:50.346Z,1015.15
2019-01-02T07:54:50.359Z,1015.05
2019-01-02T07:55:50.372Z,1015.18
2019-01-02T07:56:50.387Z,1015.13
2019-01-02T07:57:50.405Z,1015.18
2019-01-02T07:58:50.412Z,1015.21
2019-01-02T07:59:50.427Z,1015.2
2019-01-02T08:00:50.440Z,1015.2
2019-01-02T08:01:50.454Z,1015.29
2019-01-02T08:02:50.467Z,1015.27
2019-01-02T08:03:50.482Z,1015.25
2019-01-02T08:04:50.495Z,1015.27
2019-01-02T08:05:50.508Z,1015.35
2019-01-02T08:06:50.521Z,1015.37
2019-01-02T08:07:50.535Z,1015.3
2019-01-02T08:08:50.549Z,1015.35
2019-01-02T08:09:50.561Z,1015.34
2019-01-02T08:10:50.575Z,1015.37
2019-01-02T08:11:50.589Z,1015.45
2019-01-02T08:12:50.602Z,1015.4
2019-01-02T08:13:50.616Z,1015.46
2019-01-02T08:14:50.629Z,1015.52
2019-01-02T08:15:50.643Z,1015.54
2019-01-02T08:16:50.656Z,1015.59
2019-01-02T08:17:50.670Z,1015.63
2019-01-02T08:18:50.684Z,1015.59
2019-01-02T08:19:50.698Z,1015.65
2019-01-02T08:20:50.711Z,1015.62
2019-01-02T08:22:50.738Z,1015.66
2019-01-02T08:23:50.752Z,1015.78
2019-01-02T08:24:50.769Z,1015.88
2019-01-02T08:25:50.780Z,1015.9
2019-01-02T08:26:50.793Z,1015.9
2019-01-02T08:27:50.806Z,1015.87
2019-01-02T08:28:50.869Z,1016
2019-01-02T08:29:50.834Z,1016.08
2019-01-02T08:30:50.847Z,1016.07
2019-01-02T08:31:50.861Z,1016.33
2019-01-02T08:32:50.874Z,1016.25
2019-01-02T08:33:50.889Z,1016.35
2019-01-02T08:34:50.902Z,1016.25
2019-01-02T08:35:50.914Z,1016.34
2019-01-02T08:36:50.929Z,1016.35
2019-01-02T08:38:50.955Z,1016.47
2019-01-02T08:39:50.968Z,1016.48
2019-01-02T08:40:50.989Z,1016.58
2019-01-02T08:41:50.996Z,1016.76
2019-01-02T08:42:51.008Z,1016.65
2019-01-02T08:43:51.024Z,1016.69
2019-01-02T08:44:51.036Z,1016.66
2019-01-02T08:45:51.049Z,1016.74
2019-01-02T08:46:51.062Z,1016.71
2019-01-02T08:47:51.076Z,1016.8
2019-01-02T08:48:51.089Z,1016.77
2019-01-02T08:49:51.103Z,1016.95
2019-01-02T08:50:51.115Z,1016.91
2019-01-02T08:51:51.129Z,1016.89
2019-01-02T08:52:51.144Z,1016.88
2019-01-02T08:54:51.168Z,1016.93
2019-01-02T08:55:51.181Z,1016.91
2019-01-02T08:56:51.194Z,1016.98
2019-01-02T08:57:51.213Z,1017.02
2019-01-02T08:58:51.220Z,1016.99
2019-01-02T08:59:51.234Z,1017.08
2019-01-02T09:00:51.247Z,1017.01
2019-01-02T09:01:51.259Z,1017.05
2019-01-02T09:02:51.276Z,1017.12
2019-01-02T09:03:51.286Z,1017.18
2019-01-02T09:04:51.299Z,1017.22
2019-01-02T09:05:51.313Z,1017.18
2019-01-02T09:06:51.327Z,1017.37
2019-01-02T09:07:51.339Z,1017.45
2019-01-02T09:08:51.351Z,1017.36
2019-01-02T09:10:51.378Z,1017.31
2019-01-02T09:11:51.391Z,1017.28
2019-01-02T09:12:51.403Z,1017.34
2019-01-02T09:13:51.417Z,1017.31
2019-01-02T09:14:51.429Z,1017.27
2019-01-02T09:15:51.442Z,1017.25
2019-01-02T09:16:51.456Z,1017.33
2019-01-02T09:17:51.473Z,1017.36
2019-01-02T09:18:51.481Z,1017.41
2019-01-02T09:19:51.493Z,1017.26
2019-01-02T09:20:51.514Z,1017.27
2019-01-02T09:21:51.520Z,1017.37
2019-01-02T09:22:51.533Z,1017.39
2019-01-02T09:23:51.546Z,1017.42
2019-01-02T09:25:51.573Z,1017.52
2019-01-02T09:26:51.588Z,1017.49
2019-01-02T09:27:51.599Z,1017.55
2019-01-02T09:28:51.612Z,1017.55
2019-01-02T09:29:51.626Z,1017.59
2019-01-02T09:30:51.638Z,1017.62
2019-01-02T09:31:51.651Z,1017.63
2019-01-02T09:32:51.665Z,1017.61
2019-01-02T09:33:52.245Z,1017.74
2019-01-02T09:34:51.690Z,1017.73
2019-01-02T09:35:51.732Z,1017.7
2019-01-02T09:36:51.717Z,1017.67
2019-01-02T09:37:51.729Z,1017.69
2019-01-02T09:38:51.743Z,1017.84
2019-01-02T09:39:51.758Z,1017.72
2019-01-02T09:40:51.770Z,1017.84
2019-01-02T09:41:51.782Z,1017.76
2019-01-02T09:42:51.795Z,1017.89
2019-01-02T09:43:51.808Z,1017.87
2019-01-02T09:44:51.821Z,1018.02
2019-01-02T09:45:51.834Z,1018.02
2019-01-02T09:46:51.847Z,1018.08
2019-01-02T09:47:51.895Z,1018.04
2019-01-02T09:48:51.873Z,1018.09
2019-01-02T09:49:51.886Z,1018.05
2019-01-02T09:50:51.951Z,1018.06
2019-01-02T09:51:51.913Z,1018.12
2019-01-02T09:52:51.971Z,1018.09
2019-01-02T09:53:51.939Z,1018.15
2019-01-02T09:54:51.952Z,1018.12
2019-01-02T09:55:51.966Z,1018.16
2019-01-02T09:57:51.991Z,1018.14
2019-01-02T09:58:52.004Z,1018.19
2019-01-02T09:59:52.018Z,1018.23
2019-01-02T10:00:52.030Z,1018.21
2019-01-02T10:01:52.043Z,1018.25
2019-01-02T10:02:52.056Z,1018.17
2019-01-02T10:03:52.070Z,1018.2
2019-01-02T10:04:52.083Z,1018.18
2019-01-02T10:05:52.096Z,1018.24
2019-01-02T10:06:52.108Z,1018.27
2019-01-02T10:07:52.122Z,1018.33
2019-01-02T10:08:52.135Z,1018.33
2019-01-02T10:09:52.148Z,1018.27
2019-01-02T10:10:52.161Z,1018.27
2019-01-02T10:11:52.174Z,1018.26
2019-01-02T10:13:52.201Z,1018.34
2019-01-02T10:14:52.213Z,1018.31
2019-01-02T10:15:52.227Z,1018.37
2019-01-02T10:16:52.241Z,1018.32
2019-01-02T10:17:52.253Z,1018.37
2019-01-02T10:18:52.266Z,1018.38
2019-01-02T10:19:52.382Z,1018.39
2019-01-02T10:20:52.294Z,1018.41
2019-01-02T10:21:52.306Z,1018.4
2019-01-02T10:22:52.320Z,1018.48
2019-01-02T10:23:52.342Z,1018.4
2019-01-02T10:24:52.347Z,1018.48
2019-01-02T10:25:52.364Z,1018.52
2019-01-02T10:26:52.373Z,1018.51
2019-01-02T10:27:52.388Z,1018.6
2019-01-02T10:29:52.414Z,1018.58
2019-01-02T10:30:52.427Z,1018.61
2019-01-02T10:31:52.441Z,1018.62
2019-01-02T10:32:52.454Z,1018.59
2019-01-02T10:33:52.468Z,1018.62
2019-01-02T10:34:52.482Z,1018.62
2019-01-02T10:35:52.496Z,1018.66
2019-01-02T10:36:52.510Z,1018.69
2019-01-02T10:37:52.522Z,1018.62
2019-01-02T10:38:52.536Z,1018.68
2019-01-02T10:39:52.549Z,1018.72
2019-01-02T10:40:52.564Z,1018.67
2019-01-02T10:41:52.577Z,1018.71
2019-01-02T10:42:52.591Z,1018.74
2019-01-02T10:43:52.604Z,1018.78
2019-01-02T10:45:52.632Z,1018.73
2019-01-02T10:46:52.647Z,1018.82
2019-01-02T10:47:52.660Z,1018.77
2019-01-02T10:48:52.676Z,1018.74
2019-01-02T10:49:52.687Z,1018.81
2019-01-02T10:50:52.700Z,1018.8
2019-01-02T10:51:52.714Z,1018.74
2019-01-02T10:52:52.729Z,1018.88
2019-01-02T10:53:52.749Z,1018.87
2019-01-02T10:54:52.756Z,1018.84
2019-01-02T10:55:52.770Z,1018.84
2019-01-02T10:56:52.784Z,1018.88
2019-01-02T10:57:52.801Z,1018.87
2019-01-02T10:58:52.812Z,1018.83
2019-01-02T11:00:52.890Z,1018.99
2019-01-02T11:01:52.853Z,1018.9
2019-01-02T11:02:52.867Z,1018.87
2019-01-02T11:03:52.881Z,1018.94
2019-01-02T11:04:52.895Z,1018.85
2019-01-02T11:05:52.908Z,1018.94
2019-01-02T11:06:52.922Z,1018.92
2019-01-02T11:07:52.936Z,1018.92
2019-01-02T11:08:52.949Z,1018.91
2019-01-02T11:09:52.963Z,1018.99
2019-01-02T11:10:52.977Z,1019.03
2019-01-02T11:11:52.991Z,1018.98
2019-01-02T11:12:53.007Z,1018.94
2019-01-02T11:13:53.018Z,1018.95
2019-01-02T11:14:53.031Z,1018.95
2019-01-02T11:15:53.046Z,1018.94
2019-01-02T11:16:53.060Z,1018.94
2019-01-02T11:17:53.172Z,1019
2019-01-02T11:18:53.086Z,1019.03
2019-01-02T11:19:53.103Z,1018.92
2019-01-02T11:20:53.125Z,1018.98
2019-01-02T11:21:53.127Z,1018.97
2019-01-02T11:22:53.141Z,1018.96
2019-01-02T11:23:53.157Z,1019
2019-01-02T11:24:53.167Z,1019.01
2019-01-02T11:25:53.181Z,1019.08
2019-01-02T11:26:53.195Z,1019.02
2019-01-02T11:27:53.207Z,1018.99
2019-01-02T11:28:53.223Z,1019.08
2019-01-02T11:29:53.235Z,1019.03
2019-01-02T11:30:53.252Z,1018.94
2019-01-02T11:32:53.275Z,1019.12
2019-01-02T11:33:53.290Z,1019.11
2019-01-02T11:34:53.301Z,1019.03
2019-01-02T11:35:53.315Z,1019.12
2019-01-02T11:36:53.330Z,1018.97
2019-01-02T11:37:53.343Z,1019.07
2019-01-02T11:38:53.355Z,1019.14
2019-01-02T11:39:53.384Z,1019.16
2019-01-02T11:40:53.385Z,1019.06
2019-01-02T11:41:53.396Z,1019.16
2019-01-02T11:42:53.410Z,1019.12
2019-01-02T11:43:53.424Z,1019.19
2019-01-02T11:44:53.437Z,1019.22
2019-01-02T11:45:53.452Z,1019.25
2019-01-02T11:46:53.464Z,1019.15
2019-01-02T11:48:53.492Z,1019.23
2019-01-02T11:49:53.505Z,1019.29
2019-01-02T11:50:53.518Z,1019.25
2019-01-02T11:51:53.533Z,1019.31
2019-01-02T11:52:53.546Z,1019.29
2019-01-02T11:53:53.558Z,1019.26
2019-01-02T11:54:53.572Z,1019.36
2019-01-02T11:55:53.586Z,1019.36
2019-01-02T11:56:53.599Z,1019.32
2019-01-02T11:57:53.613Z,1019.34
2019-01-02T11:58:53.627Z,1019.31
2019-01-02T11:59:53.641Z,1019.31
2019-01-02T12:00:53.657Z,1019.49
2019-01-02T12:01:53.671Z,1019.5
2019-01-02T12:02:53.684Z,1019.47
2019-01-02T12:04:53.714Z,1019.56
2019-01-02T12:05:53.723Z,1019.51
2019-01-02T12:06:53.737Z,1019.42
2019-01-02T12:07:53.750Z,1019.59
2019-01-02T12:08:53.764Z,1019.51
2019-01-02T12:09:53.778Z,1019.6
2019-01-02T12:10:53.792Z,1019.52
2019-01-02T12:11:53.805Z,1019.56
2019-01-02T12:12:53.819Z,1019.54
2019-01-02T12:13:53.835Z,1019.62
2019-01-02T12:14:53.846Z,1019.55
2019-01-02T12:15:53.860Z,1019.61
2019-01-02T12:16:53.875Z,1019.56
2019-01-02T12:17:53.888Z,1019.64
2019-01-02T12:18:53.901Z,1019.89
2019-01-02T12:20:53.928Z,1019.72
2019-01-02T12:21:53.943Z,1019.73
2019-01-02T12:22:53.983Z,1019.91
2019-01-02T12:23:53.972Z,1019.7
2019-01-02T12:24:53.983Z,1019.88
2019-01-02T12:25:53.998Z,1019.8
2019-01-02T12:26:54.010Z,1019.82
2019-01-02T12:27:54.024Z,1019.75
2019-01-02T12:28:54.038Z,1019.82
2019-01-02T12:29:54.051Z,1019.86
2019-01-02T12:30:54.065Z,1019.89
2019-01-02T12:31:54.078Z,1019.98
2019-01-02T12:32:54.092Z,1019.8
2019-01-02T12:33:54.106Z,1019.81
2019-01-02T12:35:54.135Z,1019.94
2019-01-02T12:36:54.148Z,1019.89
2019-01-02T12:37:54.161Z,1019.98
2019-01-02T12:38:54.175Z,1019.91
2019-01-02T12:39:54.190Z,1019.94
2019-01-02T12:40:54.202Z,1020
2019-01-02T12:41:54.216Z,1020.03
2019-01-02T12:42:54.229Z,1020.13
2019-01-02T12:43:54.243Z,1020.13
2019-01-02T12:44:54.257Z,1020.12
2019-01-02T12:45:54.274Z,1020.11
2019-01-02T12:46:54.284Z,1020.18
2019-01-02T12:47:54.297Z,1020.2
2019-01-02T12:48:54.311Z,1020.17